Time;durP1;ratioP1;P1;durP2;ratioP2;P2;SDS_P1;SDS_P2;PMS_P1;PMS_P2;Temp;Humidity;BMP_temperature;BMP_pressure;BME280_temperature;BME280_humidity;BME280_pressure;Samples;Min_cycle;Max_cycle;Signal;HPM_P1;HPM_P2
2023/04/09 00:01:40;;;;;;;5.17;4.77;;;;;;;11.37;61.02;101063.22;5022494;28;20431;-74
2023/04/09 00:04:05;;;;;;;6.38;5.43;;;;;;;11.37;61.00;101076.81;5027577;28;20735;-75
2023/04/09 00:06:30;;;;;;;5.88;5.10;;;;;;;11.36;61.25;101067.00;5024647;28;20874;-75
2023/04/09 00:08:56;;;;;;;7.90;5.20;;;;;;;11.36;61.05;101067.00;5013109;28;20412;-74
2023/04/09 00:11:21;;;;;;;6.10;5.50;;;;;;;11.38;61.12;101064.91;5033744;28;20401;-75
2023/04/09 00:13:46;;;;;;;5.40;4.90;;;;;;;11.38;61.04;101059.47;5012856;28;20397;-75
2023/04/09 00:16:11;;;;;;;5.33;4.83;;;;;;;11.37;61.18;101056.97;5028959;28;20394;-74
2023/04/09 00:18:37;;;;;;;5.63;5.13;;;;;;;11.36;61.20;101052.63;5020927;28;20508;-75
2023/04/09 00:21:02;;;;;;;5.70;5.00;;;;;;;11.35;61.19;101056.41;5032042;28;20902;-74
2023/04/09 00:23:27;;;;;;;5.47;4.95;;;;;;;11.27;61.39;101052.13;5032647;28;20858;-74
2023/04/09 00:25:53;;;;;;;7.00;5.60;;;;;;;11.24;61.62;101052.59;5020995;28;20414;-75
2023/04/09 00:28:18;;;;;;;7.07;6.00;;;;;;;11.23;61.74;101050.94;5013614;28;20508;-75
2023/04/09 00:30:43;;;;;;;5.97;5.37;;;;;;;11.23;61.83;101052.84;5012605;28;20397;-75
2023/04/09 00:33:09;;;;;;;5.43;4.70;;;;;;;11.23;61.87;101048.22;5023284;28;20417;-75
2023/04/09 00:35:34;;;;;;;6.20;5.60;;;;;;;11.22;61.97;101051.19;5032016;28;20410;-75
2023/04/09 00:37:59;;;;;;;6.17;5.43;;;;;;;11.21;62.09;101046.81;5013993;28;20431;-75
2023/04/09 00:40:25;;;;;;;5.37;4.93;;;;;;;11.18;62.24;101050.00;5018289;28;20419;-74
2023/04/09 00:42:51;;;;;;;6.10;5.00;;;;;;;11.15;62.49;101045.88;5031036;28;20403;-75
2023/04/09 00:45:16;;;;;;;5.67;5.10;;;;;;;11.17;62.42;101056.47;5031371;28;20478;-75
2023/04/09 00:47:44;;;;;;;5.97;5.37;;;;;;;11.15;62.70;101053.19;5031058;28;20754;-75
2023/04/09 00:50:09;;;;;;;6.50;5.55;;;;;;;11.07;63.00;101053.53;5017416;28;20451;-74
2023/04/09 00:52:35;;;;;;;5.85;5.32;;;;;;;11.08;63.22;101055.19;5022992;28;20858;-74
2023/04/09 00:55:03;;;;;;;5.47;4.97;;;;;;;11.02;63.24;101056.94;5024604;28;20407;-74
2023/04/09 00:57:29;;;;;;;6.22;5.20;;;;;;;11.01;63.32;101049.88;5031549;28;20403;-75
2023/04/09 00:59:54;;;;;;;6.00;4.90;;;;;;;11.06;63.25;101050.00;5027626;28;20464;-74
2023/04/09 01:02:20;;;;;;;6.33;5.73;;;;;;;11.06;63.33;101047.28;5018725;28;20439;-75
2023/04/09 01:04:46;;;;;;;6.13;5.53;;;;;;;11.05;63.32;101055.66;5031560;28;20461;-74
2023/04/09 01:07:47;;;;;;;6.15;5.55;;;;;;;11.04;63.33;101057.53;5022718;28;20407;-74
2023/04/09 01:10:26;;;;;;;7.43;5.45;;;;;;;11.02;63.62;101050.69;5025946;28;20402;-75
2023/04/09 01:13:34;;;;;;;7.85;6.07;;;;;;;11.01;63.66;101049.88;5031499;28;20407;-75
2023/04/09 01:16:02;;;;;;;7.35;5.90;;;;;;;10.97;63.76;101045.97;5024492;28;20411;-74
2023/04/09 01:18:31;;;;;;;6.78;5.72;;;;;;;10.91;63.99;101050.44;5031527;28;20399;-74
2023/04/09 01:21:01;;;;;;;5.72;5.15;;;;;;;10.89;64.10;101052.56;5026159;28;20419;-74
2023/04/09 01:24:03;;;;;;;6.25;5.20;;;;;;;10.97;63.95;101054.09;5027906;28;20398;-74
2023/04/09 01:26:47;;;;;;;7.28;5.32;;;;;;;10.95;64.00;101056.22;5031135;28;20454;-75
2023/04/09 01:29:17;;;;;;;7.55;6.07;;;;;;;10.87;64.22;101051.13;5045726;28;20410;-75
2023/04/09 01:31:44;;;;;;;6.30;5.70;;;;;;;10.87;63.98;101051.13;5031201;28;20406;-74
2023/04/09 01:34:10;;;;;;;6.90;5.78;;;;;;;10.86;64.18;101050.31;5031260;28;20414;-75
2023/04/09 01:36:38;;;;;;;6.28;5.50;;;;;;;10.85;64.13;101045.13;5024863;28;20397;-75
2023/04/09 01:39:05;;;;;;;6.70;6.00;;;;;;;10.85;64.23;101050.53;5030460;28;20407;-75
2023/04/09 01:41:33;;;;;;;6.45;5.75;;;;;;;10.85;64.16;101051.38;5031073;28;20985;-75
2023/04/09 01:44:00;;;;;;;7.88;6.30;;;;;;;10.86;64.13;101055.75;5030863;28;20430;-74
2023/04/09 01:46:26;;;;;;;7.35;6.07;;;;;;;10.84;64.45;101048.88;5029900;28;20413;-75
2023/04/09 01:48:52;;;;;;;7.18;6.05;;;;;;;10.81;63.91;101054.78;5031494;28;20407;-74
2023/04/09 01:51:18;;;;;;;8.18;6.10;;;;;;;10.80;64.28;101055.84;5030932;28;20406;-74
2023/04/09 01:53:43;;;;;;;6.60;5.97;;;;;;;10.82;64.03;101051.00;5027205;28;20399;-74
2023/04/09 01:56:09;;;;;;;6.17;5.57;;;;;;;10.79;64.24;101046.06;5030947;28;20758;-74
2023/04/09 01:58:35;;;;;;;6.20;5.60;;;;;;;10.81;64.26;101050.19;5031088;28;20403;-75
2023/04/09 02:01:08;;;;;;;8.18;6.00;;;;;;;10.82;64.20;101056.44;5031169;28;20501;-74
2023/04/09 02:03:38;;;;;;;6.50;5.82;;;;;;;10.75;64.40;101053.81;5032913;28;20399;-75
2023/04/09 02:06:14;;;;;;;7.15;5.85;;;;;;;10.75;64.17;101064.66;5034766;28;20387;-75
2023/04/09 02:08:43;;;;;;;7.18;6.05;;;;;;;10.75;64.25;101059.25;5027075;28;20391;-74
2023/04/09 02:11:09;;;;;;;6.55;5.93;;;;;;;10.75;64.25;101064.66;5030775;28;20486;-75
2023/04/09 02:13:36;;;;;;;6.33;5.73;;;;;;;10.68;64.22;101055.78;5034574;28;20398;-75
2023/04/09 02:16:02;;;;;;;8.88;6.70;;;;;;;10.73;64.06;101065.97;5032316;28;20413;-74
2023/04/09 02:18:29;;;;;;;8.93;6.77;;;;;;;10.77;64.21;101064.41;5030690;28;20408;-75
2023/04/09 02:20:55;;;;;;;6.72;6.05;;;;;;;10.71;64.20;101057.22;5031273;28;20503;-74
2023/04/09 02:23:20;;;;;;;10.48;6.63;;;;;;;10.69;64.22;101059.34;5030704;28;20399;-75
2023/04/09 02:25:46;;;;;;;8.27;6.57;;;;;;;10.71;64.43;101057.22;5029785;28;20407;-75
2023/04/09 02:28:11;;;;;;;8.27;6.67;;;;;;;10.68;64.28;101057.69;5033535;28;20483;-75
2023/04/09 02:30:37;;;;;;;7.05;6.38;;;;;;;10.65;64.42;101052.72;5034313;28;20478;-75
2023/04/09 02:33:02;;;;;;;8.50;6.77;;;;;;;10.63;64.52;101047.53;5034282;28;20399;-75
2023/04/09 02:35:27;;;;;;;7.20;6.50;;;;;;;10.64;64.82;101049.19;5034320;28;20395;-75
2023/04/09 02:37:53;;;;;;;7.23;6.53;;;;;;;10.59;64.61;101050.94;5034007;28;20403;-75
2023/04/09 02:40:18;;;;;;;9.13;6.80;;;;;;;10.62;64.55;101045.06;5034192;28;20888;-75
2023/04/09 02:42:43;;;;;;;7.90;6.90;;;;;;;10.64;64.63;101049.19;5034286;28;20410;-75
2023/04/09 02:45:09;;;;;;;6.83;6.13;;;;;;;10.63;64.47;101050.25;5033433;28;20414;-74
2023/04/09 02:47:34;;;;;;;8.17;5.97;;;;;;;10.65;64.40;101047.31;5033643;28;20402;-74
2023/04/09 02:49:59;;;;;;;6.70;5.97;;;;;;;10.62;64.40;101047.75;5031764;28;20760;-74
2023/04/09 02:52:25;;;;;;;6.93;5.87;;;;;;;10.60;64.27;101048.00;5033916;28;20434;-75
2023/04/09 02:54:51;;;;;;;7.00;6.10;;;;;;;10.57;64.62;101059.28;5034008;28;20886;-75
2023/04/09 02:57:17;;;;;;;7.75;6.95;;;;;;;10.54;64.46;101048.09;5034147;28;20399;-74
2023/04/09 02:59:44;;;;;;;8.23;7.20;;;;;;;10.53;64.50;101055.41;5033772;28;20438;-74
2023/04/09 03:02:09;;;;;;;8.35;6.60;;;;;;;10.48;64.78;101051.72;5031264;28;20422;-74
2023/04/09 03:04:34;;;;;;;9.23;6.70;;;;;;;10.48;64.94;101044.41;5033681;28;20407;-75
2023/04/09 03:07:00;;;;;;;8.77;6.77;;;;;;;10.47;64.67;101047.38;5033742;28;20456;-75
2023/04/09 03:09:25;;;;;;;8.40;6.83;;;;;;;10.41;64.64;101041.78;5033476;28;20481;-74
2023/04/09 03:11:50;;;;;;;7.83;6.53;;;;;;;10.40;64.90;101042.03;5033493;28;20411;-75
2023/04/09 03:14:15;;;;;;;8.83;6.60;;;;;;;10.39;64.97;101038.50;5033191;28;20486;-74
2023/04/09 03:16:41;;;;;;;6.63;5.93;;;;;;;10.45;64.92;101033.19;5033405;28;20403;-75
2023/04/09 03:19:06;;;;;;;6.60;5.90;;;;;;;10.49;64.57;101032.53;5028858;28;20407;-75
2023/04/09 03:21:32;;;;;;;9.07;6.57;;;;;;;10.55;64.49;101038.91;5032982;28;20477;-75
2023/04/09 03:23:57;;;;;;;8.20;6.83;;;;;;;10.53;64.46;101036.44;5033537;28;20411;-74
2023/04/09 03:26:22;;;;;;;7.35;6.38;;;;;;;10.45;64.59;101038.63;5033123;28;20429;-74
2023/04/09 03:28:47;;;;;;;7.97;6.17;;;;;;;10.39;64.61;101041.22;5033146;28;20403;-74
2023/04/09 03:31:13;;;;;;;9.60;6.50;;;;;;;10.39;64.87;101035.78;5033227;28;20941;-74
2023/04/09 03:33:38;;;;;;;7.33;6.50;;;;;;;10.34;65.00;101032.91;5033033;28;20406;-74
2023/04/09 03:36:04;;;;;;;8.88;6.53;;;;;;;10.31;64.86;101032.56;5032649;28;20456;-74
2023/04/09 03:38:29;;;;;;;8.77;6.83;;;;;;;10.26;64.64;101032.44;5031859;28;20922;-74
2023/04/09 03:40:55;;;;;;;8.77;6.63;;;;;;;10.19;65.09;101026.25;5032931;28;20603;-75
2023/04/09 03:43:20;;;;;;;7.95;6.57;;;;;;;10.18;65.28;101035.44;5033155;28;20531;-74
2023/04/09 03:45:45;;;;;;;9.40;7.10;;;;;;;10.14;65.26;101036.97;5031010;28;20402;-74
2023/04/09 03:48:11;;;;;;;9.03;7.30;;;;;;;10.11;64.98;101045.53;5032758;28;20496;-75
2023/04/09 03:50:38;;;;;;;9.27;7.33;;;;;;;10.09;65.02;101042.19;5032626;28;20410;-75
2023/04/09 03:53:03;;;;;;;10.07;7.55;;;;;;;10.10;65.17;101036.56;5029801;28;20491;-74
2023/04/09 03:55:28;;;;;;;8.87;7.50;;;;;;;10.08;65.40;101043.25;5032760;28;20490;-74
2023/04/09 03:57:54;;;;;;;9.97;7.57;;;;;;;10.02;65.80;101036.88;5032715;28;20410;-74
2023/04/09 04:00:19;;;;;;;9.43;6.93;;;;;;;10.01;65.37;101039.81;5031079;28;20422;-74
2023/04/09 04:02:44;;;;;;;9.97;7.40;;;;;;;9.99;65.55;101031.91;5032415;28;20403;-74
2023/04/09 04:05:10;;;;;;;10.43;7.17;;;;;;;10.01;65.29;101040.63;5032317;28;20397;-74
2023/04/09 04:07:35;;;;;;;11.68;7.75;;;;;;;9.92;65.36;101033.84;5032183;28;20814;-74
2023/04/09 04:10:03;;;;;;;8.87;7.37;;;;;;;10.01;65.33;101037.91;5031483;28;20403;-74
2023/04/09 04:12:30;;;;;;;11.13;7.70;;;;;;;10.01;64.96;101037.91;5025498;28;20454;-74
2023/04/09 04:14:55;;;;;;;9.32;7.28;;;;;;;9.91;65.76;101034.94;5030998;28;20410;-74
2023/04/09 04:17:20;;;;;;;10.40;7.63;;;;;;;9.84;65.80;101043.13;5019692;28;20389;-74
2023/04/09 04:19:46;;;;;;;11.93;8.07;;;;;;;9.85;65.83;101033.94;5011274;28;20397;-75
2023/04/09 04:22:11;;;;;;;10.70;7.57;;;;;;;9.84;65.70;101042.31;5028492;28;20846;-75
2023/04/09 04:24:36;;;;;;;8.97;7.30;;;;;;;9.87;65.67;101044.56;5028650;28;20403;-75
2023/04/09 04:27:02;;;;;;;10.90;7.63;;;;;;;9.84;65.98;101045.00;5021449;28;20416;-75
2023/04/09 04:29:27;;;;;;;9.63;7.77;;;;;;;9.80;65.80;101049.22;5012734;28;20890;-74
2023/04/09 04:31:53;;;;;;;10.80;7.90;;;;;;;9.75;65.72;101047.16;5029686;28;20395;-74
2023/04/09 04:34:18;;;;;;;9.60;7.63;;;;;;;9.69;65.75;101041.81;5021438;28;20412;-74
2023/04/09 04:36:43;;;;;;;10.43;8.00;;;;;;;9.65;65.81;101048.75;5028207;28;20434;-74
2023/04/09 04:39:08;;;;;;;13.87;8.77;;;;;;;9.61;65.98;101047.56;5031382;28;20798;-74
2023/04/09 04:41:34;;;;;;;11.70;7.93;;;;;;;9.56;65.95;101048.22;5020155;28;20425;-74
2023/04/09 04:43:59;;;;;;;11.37;8.17;;;;;;;9.54;66.40;101046.78;5023942;28;20403;-75
2023/04/09 04:46:24;;;;;;;11.07;8.20;;;;;;;9.51;66.38;101049.94;5031856;28;20407;-75
2023/04/09 04:48:50;;;;;;;10.67;7.83;;;;;;;9.47;66.48;101054.97;5020699;28;20404;-74
2023/04/09 04:51:15;;;;;;;11.63;8.30;;;;;;;9.43;66.03;101048.34;5019503;28;20510;-75
2023/04/09 04:53:40;;;;;;;12.07;7.77;;;;;;;9.36;66.49;101048.41;5028329;28;20414;-75
2023/04/09 04:56:05;;;;;;;10.37;8.23;;;;;;;9.33;66.87;101053.44;5029983;28;20415;-75
2023/04/09 04:58:31;;;;;;;15.50;8.63;;;;;;;9.29;66.65;101052.22;5031775;28;20430;-74
2023/04/09 05:00:56;;;;;;;12.73;8.97;;;;;;;9.27;66.93;101046.22;5031124;28;20882;-74
2023/04/09 05:03:21;;;;;;;10.67;8.03;;;;;;;9.28;66.78;101051.41;5030439;28;20394;-74
2023/04/09 05:05:47;;;;;;;13.27;8.90;;;;;;;9.27;66.66;101052.47;5031711;28;20403;-74
2023/04/09 05:08:12;;;;;;;12.53;8.57;;;;;;;9.27;66.79;101049.75;5023479;28;20435;-74
2023/04/09 05:10:40;;;;;;;13.27;8.67;;;;;;;9.27;66.79;101059.75;5022972;28;20406;-74
2023/04/09 05:13:05;;;;;;;10.52;8.27;;;;;;;9.23;66.91;101059.34;5026493;28;20407;-75
2023/04/09 05:15:31;;;;;;;10.50;8.00;;;;;;;9.19;67.00;101055.41;5030174;28;20776;-75
2023/04/09 05:17:56;;;;;;;15.53;9.57;;;;;;;9.18;66.84;101059.19;5018101;28;20408;-74
2023/04/09 05:20:22;;;;;;;11.23;8.73;;;;;;;9.16;66.73;101060.44;5022669;28;20416;-74
2023/04/09 05:22:47;;;;;;;15.03;9.47;;;;;;;9.12;66.86;101067.38;5027499;28;20403;-74
2023/04/09 05:25:14;;;;;;;13.77;9.80;;;;;;;9.13;66.59;101069.00;5036884;28;20422;-74
2023/04/09 05:27:40;;;;;;;14.07;8.90;;;;;;;9.09;67.20;101070.50;5035543;28;20397;-74
2023/04/09 05:30:06;;;;;;;12.30;8.45;;;;;;;9.07;67.26;101068.00;5029166;28;20736;-74
2023/04/09 05:32:32;;;;;;;16.00;9.95;;;;;;;9.06;67.34;101071.75;5024716;28;20409;-73
2023/04/09 05:34:57;;;;;;;13.13;9.23;;;;;;;9.05;66.97;101070.13;5018689;28;20404;-74
2023/04/09 05:37:22;;;;;;;12.27;8.97;;;;;;;9.07;66.82;101067.19;5025016;28;20910;-74
2023/04/09 05:39:47;;;;;;;13.60;8.82;;;;;;;9.08;67.18;101068.84;5045670;28;20398;-74
2023/04/09 05:42:13;;;;;;;15.07;9.27;;;;;;;9.10;67.18;101067.56;5028620;28;20481;-74
2023/04/09 05:44:38;;;;;;;13.10;8.90;;;;;;;9.19;66.67;101073.53;5029664;28;20819;-74
2023/04/09 05:47:03;;;;;;;16.07;9.80;;;;;;;9.28;66.77;101073.06;5018578;28;20471;-74
2023/04/09 05:49:29;;;;;;;13.95;9.32;;;;;;;9.23;66.75;101075.56;5034571;28;20432;-73
2023/04/09 05:51:54;;;;;;;13.77;9.67;;;;;;;9.27;66.84;101071.38;5022135;28;20406;-74
2023/04/09 05:54:20;;;;;;;13.17;9.33;;;;;;;9.31;66.79;101080.72;5043503;28;20407;-74
2023/04/09 05:56:46;;;;;;;13.97;9.77;;;;;;;9.29;66.49;101077.38;5024492;28;20745;-75
2023/04/09 05:59:12;;;;;;;14.93;9.20;;;;;;;9.33;66.89;101080.47;5037893;28;20427;-75
2023/04/09 06:01:37;;;;;;;15.13;9.10;;;;;;;9.25;66.87;101073.47;5013554;28;20833;-74
2023/04/09 06:04:02;;;;;;;13.80;9.50;;;;;;;9.24;66.79;101079.13;5029796;28;20453;-74
2023/04/09 06:06:28;;;;;;;14.30;9.43;;;;;;;9.25;66.64;101086.97;5021425;28;20825;-74
2023/04/09 06:08:53;;;;;;;12.97;9.57;;;;;;;9.28;66.85;101075.75;5027983;28;20389;-75
2023/04/09 06:11:18;;;;;;;14.50;9.83;;;;;;;9.29;66.89;101084.66;5028579;28;20411;-74
2023/04/09 06:13:44;;;;;;;13.17;9.77;;;;;;;9.20;67.30;101084.13;5037962;28;20413;-74
2023/04/09 06:16:09;;;;;;;14.47;10.30;;;;;;;9.12;67.55;101089.00;5034121;28;20491;-76
2023/04/09 06:18:35;;;;;;;13.43;9.48;;;;;;;9.17;67.61;101086.44;5028486;28;20824;-75
2023/04/09 06:21:05;;;;;;;12.63;8.82;;;;;;;9.18;66.89;101082.69;5029290;28;20514;-74
2023/04/09 06:23:31;;;;;;;13.90;10.25;;;;;;;9.15;67.14;101086.69;5021700;28;20450;-75
2023/04/09 06:25:57;;;;;;;12.63;9.23;;;;;;;9.07;67.20;101088.81;5023263;28;21111;-75
2023/04/09 06:28:22;;;;;;;14.50;10.40;;;;;;;9.08;67.12;101085.91;5031818;28;20482;-75
2023/04/09 06:30:47;;;;;;;14.83;10.23;;;;;;;9.13;67.63;101083.34;5021759;28;20417;-74
2023/04/09 06:33:13;;;;;;;15.13;10.27;;;;;;;9.12;67.55;101089.00;5026826;28;20415;-75
2023/04/09 06:35:38;;;;;;;13.97;9.73;;;;;;;9.21;67.31;101093.06;5029117;28;20453;-75
2023/04/09 06:38:03;;;;;;;14.63;9.20;;;;;;;9.25;66.85;101092.41;5021176;28;20908;-75
2023/04/09 06:40:29;;;;;;;14.70;10.33;;;;;;;9.42;66.78;101089.97;5029748;28;20474;-75
2023/04/09 06:42:54;;;;;;;14.03;9.87;;;;;;;9.75;66.24;101092.34;5019792;28;20409;-75
2023/04/09 06:45:19;;;;;;;15.90;10.00;;;;;;;10.01;65.62;101094.78;5018746;28;20401;-75
2023/04/09 06:47:45;;;;;;;13.13;9.80;;;;;;;10.31;64.54;101094.88;5033038;28;20406;-75
2023/04/09 06:50:10;;;;;;;12.30;9.15;;;;;;;10.38;64.11;101098.31;5031342;28;20399;-75
2023/04/09 06:52:35;;;;;;;14.73;10.63;;;;;;;10.49;64.06;101096.72;5028891;28;20413;-75
2023/04/09 06:55:01;;;;;;;14.50;10.40;;;;;;;10.51;63.66;101106.28;5029022;28;20411;-74
2023/04/09 06:57:26;;;;;;;15.13;10.33;;;;;;;10.40;63.51;101094.34;5025952;28;20414;-74
2023/04/09 06:59:51;;;;;;;15.07;10.90;;;;;;;10.41;64.14;101100.56;5026092;28;20907;-74
2023/04/09 07:02:16;;;;;;;17.13;11.67;;;;;;;10.46;64.08;101089.06;5027394;28;20473;-74
2023/04/09 07:04:42;;;;;;;14.60;11.33;;;;;;;10.44;63.92;101091.19;5028554;28;20414;-74
2023/04/09 07:07:07;;;;;;;16.57;12.30;;;;;;;10.41;63.97;101101.41;5033019;28;20405;-76
2023/04/09 07:09:32;;;;;;;21.00;13.17;;;;;;;10.46;63.79;101097.19;5026448;28;20486;-76
2023/04/09 07:11:58;;;;;;;16.23;12.05;;;;;;;10.55;64.01;101095.81;5026511;28;20726;-74
2023/04/09 07:14:23;;;;;;;14.93;11.93;;;;;;;10.70;63.66;101094.34;5024226;28;20874;-74
2023/04/09 07:16:48;;;;;;;16.25;11.52;;;;;;;10.76;63.16;101096.16;5026598;28;20387;-74
2023/04/09 07:19:14;;;;;;;16.17;12.80;;;;;;;10.74;63.00;101092.81;5031000;28;20742;-74
2023/04/09 07:21:39;;;;;;;16.70;12.32;;;;;;;10.78;63.08;101094.03;5018011;28;20467;-74
2023/04/09 07:24:05;;;;;;;13.10;10.80;;;;;;;10.86;62.71;101099.13;5024508;28;20397;-74
2023/04/09 07:26:31;;;;;;;14.60;10.83;;;;;;;10.99;62.54;101106.25;5033484;28;20403;-74
2023/04/09 07:28:57;;;;;;;12.47;10.20;;;;;;;11.12;62.08;101102.50;5016187;28;20393;-74
2023/04/09 07:31:22;;;;;;;15.70;11.43;;;;;;;11.14;62.01;101100.34;5032242;28;20391;-75
2023/04/09 07:33:47;;;;;;;15.97;11.50;;;;;;;11.10;61.95;101096.47;5024641;28;20431;-73
2023/04/09 07:36:13;;;;;;;16.97;10.80;;;;;;;11.11;61.94;101101.66;5013042;28;20440;-73
2023/04/09 07:38:38;;;;;;;13.87;11.23;;;;;;;11.15;62.12;101107.44;5014038;28;20389;-74
2023/04/09 07:41:03;;;;;;;14.57;11.03;;;;;;;11.19;61.99;101109.47;5018133;28;20489;-74
2023/04/09 07:43:30;;;;;;;18.40;11.00;;;;;;;11.30;62.20;101097.78;5023073;28;20483;-74
2023/04/09 07:45:56;;;;;;;15.27;11.35;;;;;;;11.38;61.67;101108.31;5012702;28;20401;-75
2023/04/09 07:48:21;;;;;;;14.50;10.57;;;;;;;11.47;61.47;101108.78;5030804;28;20399;-75
2023/04/09 07:50:47;;;;;;;14.80;10.87;;;;;;;11.59;61.19;101108.81;5036438;28;20451;-74
2023/04/09 07:53:12;;;;;;;13.68;10.32;;;;;;;11.58;61.10;101105.25;5033035;28;20395;-77
2023/04/09 07:55:38;;;;;;;16.07;10.53;;;;;;;11.64;60.91;101112.47;5033967;28;20997;-75
2023/04/09 07:58:04;;;;;;;15.80;10.80;;;;;;;11.74;60.63;101111.91;5041906;28;20421;-77
2023/04/09 08:00:30;;;;;;;13.40;10.05;;;;;;;11.84;60.64;101109.41;5038174;28;20503;-74
2023/04/09 08:02:56;;;;;;;12.77;9.90;;;;;;;11.95;60.51;101114.03;5024425;28;20499;-74
2023/04/09 08:05:21;;;;;;;15.52;10.45;;;;;;;12.02;60.21;101122.84;5013680;28;20760;-75
2023/04/09 08:07:47;;;;;;;15.10;10.73;;;;;;;12.14;60.12;101120.97;5018483;28;20453;-74
2023/04/09 08:10:14;;;;;;;12.60;10.20;;;;;;;12.20;59.66;101122.72;5015579;28;20395;-75
2023/04/09 08:12:39;;;;;;;12.52;10.32;;;;;;;12.39;59.20;101124.19;5018139;28;20385;-75
2023/04/09 08:15:05;;;;;;;13.77;10.30;;;;;;;12.80;57.85;101116.84;5016363;28;20402;-75
2023/04/09 08:17:31;;;;;;;12.45;10.07;;;;;;;12.80;57.73;101114.13;5032549;28;20395;-76
2023/04/09 08:19:56;;;;;;;14.52;10.73;;;;;;;12.99;57.27;101121.84;5027212;28;20379;-76
2023/04/09 08:22:21;;;;;;;11.37;9.77;;;;;;;13.08;57.14;101115.97;5030006;28;20451;-75
2023/04/09 08:24:51;;;;;;;12.20;9.47;;;;;;;12.97;57.25;101123.16;5023751;28;20451;-74
2023/04/09 08:27:16;;;;;;;13.63;10.33;;;;;;;12.90;57.78;101123.31;5031547;28;20464;-75
2023/04/09 08:29:42;;;;;;;11.20;9.70;;;;;;;12.87;57.78;101114.81;5041679;28;20888;-75
2023/04/09 08:32:07;;;;;;;16.97;9.73;;;;;;;12.89;57.42;101108.03;5042494;28;20484;-74
2023/04/09 08:34:32;;;;;;;12.20;9.33;;;;;;;12.91;57.17;101121.38;5043788;28;20388;-74
2023/04/09 08:36:58;;;;;;;13.10;10.50;;;;;;;12.93;57.30;101127.44;5023427;28;20930;-74
2023/04/09 08:39:24;;;;;;;13.05;9.68;;;;;;;13.05;56.95;101106.41;5019268;28;20399;-74
2023/04/09 08:41:50;;;;;;;14.05;10.07;;;;;;;13.16;56.96;101118.34;5014304;28;20421;-75
2023/04/09 08:44:16;;;;;;;12.63;10.25;;;;;;;13.22;56.44;101122.78;5018669;28;20391;-75
2023/04/09 08:46:42;;;;;;;11.70;9.30;;;;;;;13.24;56.39;101112.47;5022070;28;20463;-74
2023/04/09 08:49:09;;;;;;;11.57;9.33;;;;;;;13.35;56.08;101109.69;5026236;28;20387;-75
2023/04/09 08:51:34;;;;;;;10.80;9.20;;;;;;;13.43;55.90;101108.47;5015843;28;20422;-74
2023/04/09 08:54:00;;;;;;;11.35;8.70;;;;;;;13.50;55.22;101107.22;5031873;28;20491;-74
2023/04/09 08:56:26;;;;;;;12.27;8.57;;;;;;;13.59;54.59;101113.06;5024908;28;20394;-74
2023/04/09 08:58:52;;;;;;;10.07;8.02;;;;;;;13.74;53.91;101112.47;5019415;28;20745;-74
2023/04/09 09:01:23;;;;;;;9.30;8.27;;;;;;;14.15;53.09;101124.78;5012859;28;20507;-75
2023/04/09 09:04:05;;;;;;;9.43;7.95;;;;;;;14.74;52.07;101121.19;5026583;28;20468;-74
2023/04/09 09:06:36;;;;;;;8.10;7.27;;;;;;;15.55;48.22;101122.78;5022087;28;20395;-75
2023/04/09 09:09:11;;;;;;;10.73;9.63;;;;;;;16.02;46.74;101130.22;5016044;28;20381;-74
2023/04/09 09:11:44;;;;;;;26.70;10.95;;;;;;;16.27;46.35;101124.06;5016716;28;20391;-75
2023/04/09 09:14:12;;;;;;;300.30;63.95;;;;;;;16.64;45.69;101127.53;5021414;28;20442;-75
2023/04/09 09:16:42;;;;;;;829.67;152.30;;;;;;;16.88;45.38;101122.38;5028684;28;20396;-74
2023/04/09 09:19:25;;;;;;;1999.90;999.90;;;;;;;16.47;44.45;101126.88;5027920;28;20398;-74
2023/04/09 09:22:06;;;;;;;1999.90;999.90;;;;;;;16.33;44.81;101121.09;5019723;28;20893;-74
2023/04/09 09:24:33;;;;;;;1999.90;999.90;;;;;;;15.59;45.96;101117.63;5017869;28;20507;-74
2023/04/09 09:26:59;;;;;;;1999.90;999.90;;;;;;;15.30;45.55;101116.28;5027636;28;20502;-74
2023/04/09 09:29:25;;;;;;;1999.90;999.90;;;;;;;14.87;46.39;101119.94;5032495;28;20754;-74
2023/04/09 09:31:52;;;;;;;1999.90;999.90;;;;;;;15.06;46.79;101113.88;5020900;28;20452;-75
2023/04/09 09:34:19;;;;;;;1999.90;999.90;;;;;;;15.67;45.80;101105.41;5012237;28;20403;-74
2023/04/09 09:36:45;;;;;;;1999.90;999.90;;;;;;;15.39;45.40;101110.06;5010359;28;20404;-74
2023/04/09 09:39:12;;;;;;;1999.90;999.90;;;;;;;15.26;45.81;101115.13;5016596;28;20402;-74
2023/04/09 09:41:38;;;;;;;1784.75;796.70;;;;;;;16.23;43.44;101117.47;5023785;28;20419;-74
2023/04/09 09:44:06;;;;;;;223.40;86.50;;;;;;;15.89;40.90;101117.00;5024526;28;20395;-74
2023/04/09 09:46:35;;;;;;;6.65;5.55;;;;;;;15.09;41.60;101112.53;5015205;28;20404;-74
2023/04/09 09:49:00;;;;;;;15.73;13.80;;;;;;;14.79;42.82;101121.22;5026143;28;20498;-74
2023/04/09 09:51:26;;;;;;;14.90;13.15;;;;;;;14.61;42.87;101118.84;5032172;28;20543;-75
2023/04/09 09:53:55;;;;;;;21.27;17.77;;;;;;;14.71;43.27;101112.69;5011698;28;20389;-74
2023/04/09 09:56:25;;;;;;;24.67;19.15;;;;;;;15.53;41.62;101105.03;5022472;28;20799;-74
2023/04/09 09:59:17;;;;;;;4.40;4.07;;;;;;;15.49;40.91;101115.63;5019974;28;20391;-74
2023/04/09 10:01:44;;;;;;;2.95;2.75;;;;;;;15.32;39.71;101117.66;5029596;28;20423;-74
2023/04/09 10:04:13;;;;;;;3.42;3.10;;;;;;;15.02;39.81;101114.63;5015207;28;20393;-74
2023/04/09 10:06:43;;;;;;;3.13;2.93;;;;;;;14.91;40.84;101108.28;5012082;28;20396;-74
2023/04/09 10:09:09;;;;;;;5.03;4.57;;;;;;;14.87;41.67;101112.59;5020243;28;20383;-74
2023/04/09 10:11:36;;;;;;;3.67;3.37;;;;;;;14.75;42.25;101106.44;5018655;28;20405;-74
2023/04/09 10:14:02;;;;;;;4.60;4.30;;;;;;;14.75;43.24;101102.91;5027528;28;20391;-75
2023/04/09 10:16:28;;;;;;;4.82;4.43;;;;;;;14.74;43.27;101106.72;5011389;28;20419;-75
2023/04/09 10:18:58;;;;;;;22.50;13.25;;;;;;;14.84;43.57;101110.38;5011394;28;20499;-74
2023/04/09 10:21:40;;;;;;;4.45;4.03;;;;;;;14.78;42.52;101113.31;5012720;28;20431;-73
2023/04/09 10:24:08;;;;;;;4.13;3.60;;;;;;;14.33;42.82;101105.38;5014067;28;20436;-74
2023/04/09 10:26:34;;;;;;;4.10;3.80;;;;;;;14.38;43.22;101105.50;5021249;28;20522;-74
2023/04/09 10:29:13;;;;;;;3.90;3.50;;;;;;;14.51;43.22;101102.38;5039890;28;20459;-74
2023/04/09 10:32:03;;;;;;;5.00;4.60;;;;;;;14.53;43.62;101103.75;5029561;28;20961;-74
2023/04/09 10:34:29;;;;;;;3.50;3.30;;;;;;;14.63;42.68;101107.66;5023526;28;20406;-74
2023/04/09 10:36:58;;;;;;;2.85;2.65;;;;;;;14.67;42.02;101101.47;5023897;28;20458;-74
2023/04/09 10:39:26;;;;;;;3.10;2.90;;;;;;;14.74;41.28;101093.06;5028729;28;20402;-74
2023/04/09 10:41:53;;;;;;;3.33;3.13;;;;;;;14.98;40.94;101103.41;5018778;28;20925;-74
2023/04/09 10:44:23;;;;;;;3.35;3.15;;;;;;;15.25;40.23;101087.00;5042983;28;20707;-74
2023/04/09 10:46:52;;;;;;;5.25;3.13;;;;;;;15.21;39.10;101094.09;5024616;28;20474;-75
2023/04/09 10:49:19;;;;;;;2.83;2.63;;;;;;;15.50;39.60;101084.53;5018882;28;20403;-75
2023/04/09 10:52:00;;;;;;;2.90;2.70;;;;;;;15.65;39.33;101093.88;5029960;28;20500;-74
2023/04/09 10:54:31;;;;;;;3.05;2.83;;;;;;;15.71;39.29;101090.94;5018884;28;20791;-74
2023/04/09 10:57:05;;;;;;;3.08;2.78;;;;;;;15.92;39.35;101084.50;5015452;28;20963;-74
2023/04/09 10:59:31;;;;;;;3.53;3.00;;;;;;;15.85;38.93;101086.66;5017053;28;20440;-75
2023/04/09 11:01:59;;;;;;;3.20;3.00;;;;;;;15.77;38.69;101089.06;5029374;28;20950;-75
2023/04/09 11:04:35;;;;;;;2.88;2.67;;;;;;;15.81;38.44;101080.06;5024164;28;20435;-74
2023/04/09 11:07:04;;;;;;;2.67;2.47;;;;;;;16.18;38.21;101085.44;5045248;28;20399;-74
2023/04/09 11:09:33;;;;;;;2.60;2.50;;;;;;;16.06;38.41;101082.13;5018025;28;20395;-74
2023/04/09 11:11:59;;;;;;;3.28;3.03;;;;;;;15.93;38.85;101090.81;5025889;28;20741;-74
2023/04/09 11:14:25;;;;;;;3.00;2.80;;;;;;;15.87;38.92;101080.94;5024014;28;20451;-74
2023/04/09 11:16:50;;;;;;;3.22;3.03;;;;;;;16.45;38.57;101082.56;5026817;28;20513;-74
2023/04/09 11:19:15;;;;;;;2.90;2.80;;;;;;;16.78;38.15;101082.13;5017663;28;20391;-74